createdAt,value
2018-07-09T04:10:57.279Z,1388
2018-07-09T04:11:22.771Z,1404
2018-07-09T04:11:48.248Z,1428
2018-07-09T04:12:13.747Z,1440
2018-07-09T04:12:39.244Z,1460
2018-07-09T04:13:04.719Z,1472
2018-07-09T04:13:30.235Z,1488
2018-07-09T04:13:55.716Z,1500
2018-07-09T04:14:21.210Z,1512
2018-07-09T04:14:46.767Z,1520
2018-07-09T04:15:12.192Z,1532
2018-07-09T04:15:37.702Z,1548
2018-07-09T04:16:03.188Z,1556
2018-07-09T04:16:28.681Z,1568
2018-07-09T04:16:54.194Z,1576
2018-07-09T04:17:19.709Z,1588
2018-07-09T04:17:45.203Z,1600
2018-07-09T04:18:10.716Z,1616
2018-07-09T04:18:36.229Z,1628
2018-07-09T04:19:01.711Z,1640
2018-07-09T04:19:27.202Z,1656
2018-07-09T04:19:52.697Z,1672
2018-07-09T04:20:18.246Z,1692
2018-07-09T04:20:43.753Z,1708
2018-07-09T04:21:09.211Z,1724
2018-07-09T04:21:34.743Z,1744
2018-07-09T04:22:00.234Z,1756
2018-07-09T04:22:25.739Z,1772
2018-07-09T04:22:51.220Z,1788
2018-07-09T04:23:16.747Z,1804
2018-07-09T04:23:42.234Z,1812
2018-07-09T04:24:07.732Z,1824
2018-07-09T04:24:33.232Z,1840
2018-07-09T04:24:58.728Z,1852
2018-07-09T04:25:24.226Z,1860
2018-07-09T04:25:49.730Z,1868
2018-07-09T04:26:15.271Z,1872
2018-07-09T04:26:40.692Z,1880
2018-07-09T04:27:06.219Z,1892
2018-07-09T04:27:31.688Z,1904
2018-07-09T04:27:57.166Z,1924
2018-07-09T04:28:22.693Z,1940
2018-07-09T04:28:48.184Z,1972
2018-07-09T04:29:13.695Z,2008
2018-07-09T04:29:39.254Z,2040
2018-07-09T04:30:04.751Z,2080
2018-07-09T04:30:30.218Z,2108
2018-07-09T04:30:55.732Z,2136
2018-07-09T04:31:21.257Z,2156
2018-07-09T04:31:46.801Z,2180
2018-07-09T04:32:12.218Z,2204
2018-07-09T04:32:37.738Z,2224
2018-07-09T04:33:03.248Z,2252
2018-07-09T04:33:28.747Z,2276
2018-07-09T04:33:54.262Z,2304
2018-07-09T04:34:19.763Z,2332
2018-07-09T04:34:45.252Z,2360
2018-07-09T04:35:10.784Z,2392
2018-07-09T04:35:36.258Z,2416
2018-07-09T04:36:01.732Z,2448
2018-07-09T04:36:27.200Z,2484
2018-07-09T04:36:52.684Z,2520
2018-07-09T04:37:18.182Z,2560
2018-07-09T04:37:43.723Z,2596
2018-07-09T04:38:09.207Z,2636
2018-07-09T04:38:34.718Z,2672
2018-07-09T04:39:00.216Z,2716
2018-07-09T04:39:25.715Z,2760
2018-07-09T04:39:51.255Z,2808
2018-07-09T04:40:16.756Z,2844
2018-07-09T04:40:42.245Z,2884
2018-07-09T04:41:07.751Z,2928
2018-07-09T04:41:33.236Z,2964
2018-07-09T04:41:58.777Z,3000
2018-07-09T04:42:24.259Z,3036
2018-07-09T04:42:49.764Z,3068
2018-07-09T04:43:15.248Z,3096
2018-07-09T04:43:40.686Z,3132
2018-07-09T04:44:06.193Z,3156
2018-07-09T04:44:31.722Z,3188
2018-07-09T04:44:57.214Z,3212
2018-07-09T04:45:22.719Z,3236
2018-07-09T04:45:48.222Z,3256
2018-07-09T04:46:13.712Z,3272
2018-07-09T04:46:39.203Z,3292
2018-07-09T04:47:04.723Z,3316
2018-07-09T04:47:30.223Z,3344
2018-07-09T04:47:55.721Z,3372
2018-07-09T04:48:21.205Z,3404
2018-07-09T04:48:46.737Z,3424
2018-07-09T04:49:12.232Z,3448
2018-07-09T04:49:37.742Z,3468
2018-07-09T04:50:03.227Z,3496
2018-07-09T04:50:28.726Z,3512
2018-07-09T04:50:54.242Z,3540
2018-07-09T04:51:19.751Z,3548
2018-07-09T04:51:45.214Z,3560
2018-07-09T04:52:10.708Z,3580
2018-07-09T04:52:36.198Z,3592
2018-07-09T04:53:01.722Z,3604
2018-07-09T04:53:27.260Z,3620
2018-07-09T04:53:52.713Z,3636
2018-07-09T04:54:18.206Z,3660
2018-07-09T04:54:43.671Z,3684
2018-07-09T04:55:09.187Z,3700
2018-07-09T04:55:34.674Z,3716
2018-07-09T04:56:00.165Z,3728
2018-07-09T04:56:25.655Z,3748
2018-07-09T04:56:51.137Z,3760
2018-07-09T04:57:16.643Z,3764
2018-07-09T04:57:42.143Z,3776
2018-07-09T04:58:07.616Z,3788
2018-07-09T04:58:33.119Z,3816
2018-07-09T04:58:58.653Z,3832
2018-07-09T04:59:24.179Z,3840
2018-07-09T04:59:49.668Z,3836
2018-07-09T05:00:15.144Z,3836
2018-07-09T05:00:40.683Z,3848
2018-07-09T05:01:06.198Z,3860
2018-07-09T05:01:31.704Z,3868
2018-07-09T05:01:57.160Z,3876
2018-07-09T05:02:22.669Z,3892
2018-07-09T05:02:48.162Z,3908
2018-07-09T05:03:13.645Z,3932
2018-07-09T05:03:39.156Z,3944
2018-07-09T05:04:04.675Z,3948
2018-07-09T05:04:30.150Z,3956
2018-07-09T05:04:55.643Z,3964
2018-07-09T05:05:21.126Z,3980
2018-07-09T05:05:46.637Z,3992
2018-07-09T05:06:12.200Z,3996
2018-07-09T05:06:37.632Z,4012
2018-07-09T05:07:03.128Z,4032
2018-07-09T05:07:28.633Z,4036
2018-07-09T05:07:54.123Z,4048
2018-07-09T05:08:19.654Z,4052
2018-07-09T05:08:45.146Z,4056
2018-07-09T05:09:10.676Z,4064
2018-07-09T05:09:36.226Z,4068
2018-07-09T05:10:01.814Z,4068
2018-07-09T05:10:27.279Z,4064
2018-07-09T05:10:52.878Z,4072
2018-07-09T05:11:18.268Z,4088
2018-07-09T05:11:43.757Z,4096
2018-07-09T05:12:09.249Z,4120
2018-07-09T05:12:34.759Z,4136
2018-07-09T05:13:00.309Z,4144
2018-07-09T05:13:25.747Z,4152
2018-07-09T05:13:51.436Z,4164
2018-07-09T05:14:16.885Z,4168
2018-07-09T05:14:42.512Z,4172
2018-07-09T05:15:08.037Z,4184
2018-07-09T05:15:33.554Z,4204
2018-07-09T05:15:59.201Z,4216
2018-07-09T05:16:24.913Z,4228
2018-07-09T05:16:50.404Z,4240
2018-07-09T05:17:15.878Z,4252
2018-07-09T05:17:41.792Z,4272
2018-07-09T05:18:07.246Z,4296
2018-07-09T05:18:32.777Z,4308
2018-07-09T05:18:58.281Z,4308
2018-07-09T05:19:23.769Z,4308
2018-07-09T05:19:49.230Z,4312
2018-07-09T05:20:15.072Z,4324
2018-07-09T05:20:41.008Z,4320
2018-07-09T05:21:06.466Z,4320
2018-07-09T05:21:32.005Z,4304
2018-07-09T05:21:57.540Z,4312
2018-07-09T05:22:23.162Z,4332
2018-07-09T05:22:48.665Z,5900
2018-07-09T05:23:14.136Z,5908
2018-07-09T05:23:39.628Z,5916
2018-07-09T05:24:05.117Z,5940
2018-07-09T05:24:30.624Z,5952
2018-07-09T05:24:56.105Z,5972
2018-07-09T05:25:21.592Z,6000
2018-07-09T05:25:47.062Z,6024
2018-07-09T05:26:12.644Z,6048
2018-07-09T05:26:38.150Z,6068
2018-07-09T05:27:03.626Z,6076
2018-07-09T05:27:29.147Z,6104
2018-07-09T05:27:54.636Z,6128
2018-07-09T05:28:20.184Z,6152
2018-07-09T05:29:28.910Z,6212
2018-07-09T05:29:54.417Z,6220
2018-07-09T05:30:19.903Z,6268
2018-07-09T05:30:45.381Z,6352
2018-07-09T05:31:10.891Z,6456
2018-07-09T05:31:36.353Z,6528
2018-07-09T05:32:01.865Z,6612
2018-07-09T05:32:27.361Z,6696
2018-07-09T05:32:52.878Z,6776
2018-07-09T05:33:18.454Z,6836
2018-07-09T05:33:43.878Z,6844
2018-07-09T05:34:09.356Z,6792
2018-07-09T05:34:34.879Z,6788
2018-07-09T05:35:00.390Z,6836
2018-07-09T05:36:19.496Z,6888
2018-07-09T05:36:45.036Z,6904
2018-07-09T05:37:10.526Z,6960
2018-07-09T05:37:36.025Z,7072
2018-07-09T05:38:01.745Z,7124
2018-07-09T05:38:27.188Z,7160
2018-07-09T05:38:52.683Z,7144
2018-07-09T05:39:18.169Z,7140
2018-07-09T05:39:43.661Z,6884
2018-07-09T05:40:09.240Z,6844
2018-07-09T05:40:34.657Z,6916
2018-07-09T05:41:00.156Z,7020
2018-07-09T05:41:25.665Z,7012
2018-07-09T05:41:51.184Z,7016
2018-07-09T05:43:04.984Z,7084
2018-07-09T05:43:30.488Z,7172
2018-07-09T05:43:55.990Z,7152
2018-07-09T05:44:21.494Z,7156
2018-07-09T05:44:47.027Z,7188
2018-07-09T05:45:12.515Z,7188
2018-07-09T05:45:38.029Z,7208
2018-07-09T05:46:03.525Z,7180
2018-07-09T05:46:29.153Z,7212
2018-07-09T05:46:54.719Z,7220
2018-07-09T05:47:20.202Z,7224
2018-07-09T05:48:34.007Z,7480
2018-07-09T05:48:59.510Z,7616
2018-07-09T05:49:25.030Z,7760
2018-07-09T05:49:50.510Z,7856
2018-07-09T05:50:16.025Z,7988
2018-07-09T05:50:41.583Z,7976
2018-07-09T05:51:07.103Z,7968
2018-07-09T05:51:32.576Z,7996
2018-07-09T05:51:58.075Z,7876
2018-07-09T05:52:23.712Z,7864
2018-07-09T05:52:49.236Z,7756
2018-07-09T05:53:14.717Z,7680
2018-07-09T05:53:40.213Z,7804
2018-07-09T05:54:05.718Z,7820
2018-07-09T05:54:31.223Z,8128
2018-07-09T05:55:55.265Z,8796
2018-07-09T05:56:20.780Z,9160
2018-07-09T05:56:46.277Z,9684
2018-07-09T05:57:11.760Z,10240
2018-07-09T05:57:37.278Z,11148
2018-07-09T05:58:02.786Z,11864
2018-07-09T05:58:28.261Z,12324
2018-07-09T05:58:53.764Z,12708
2018-07-09T05:59:19.256Z,13004
2018-07-09T05:59:44.734Z,13208
2018-07-09T06:00:10.240Z,13436
2018-07-09T06:00:35.739Z,13592
2018-07-09T06:01:01.264Z,13644
2018-07-09T06:01:26.776Z,13928
2018-07-09T06:01:52.276Z,14244
2018-07-09T06:02:17.772Z,14716
2018-07-09T06:02:43.278Z,15264
2018-07-09T06:03:08.752Z,15424
2018-07-09T06:03:34.265Z,15872
2018-07-09T06:03:59.774Z,16384
2018-07-09T06:04:25.266Z,16992
2018-07-09T06:04:50.770Z,17344
2018-07-09T06:05:16.235Z,15168
2018-07-09T06:05:41.756Z,16160
2018-07-09T06:06:07.284Z,18624
2018-07-09T06:06:32.796Z,18272
2018-07-09T06:06:58.303Z,13164
2018-07-09T06:07:23.813Z,11992
2018-07-09T06:07:49.328Z,14900
2018-07-09T06:08:14.841Z,15520
2018-07-09T06:08:40.345Z,16640
2018-07-09T06:09:05.807Z,14920
2018-07-09T06:09:31.306Z,15184
2018-07-09T06:09:56.789Z,12580
2018-07-09T06:10:22.298Z,12812
2018-07-09T06:10:47.834Z,12008
2018-07-09T06:11:13.428Z,11544
2018-07-09T06:11:38.896Z,12276
2018-07-09T06:12:04.385Z,12312
2018-07-09T06:12:29.878Z,11052
2018-07-09T06:12:55.378Z,13568
2018-07-09T06:13:20.880Z,11352
2018-07-09T06:13:46.417Z,9916
2018-07-09T06:14:11.910Z,10108
2018-07-09T06:14:37.397Z,9872
2018-07-09T06:15:02.889Z,10180
2018-07-09T06:15:28.458Z,16448
2018-07-09T06:15:53.924Z,20864
2018-07-09T06:16:19.386Z,12648
2018-07-09T06:16:44.890Z,11548
2018-07-09T06:17:10.460Z,22176
2018-07-09T06:17:35.947Z,27648
2018-07-09T06:18:01.436Z,10560
2018-07-09T06:18:26.938Z,11832
2018-07-09T06:18:52.464Z,12460
2018-07-09T06:19:18.016Z,11864
2018-07-09T06:19:43.509Z,10408
2018-07-09T06:20:08.997Z,9980
2018-07-09T06:20:34.447Z,10128
2018-07-09T06:20:59.916Z,11092
2018-07-09T06:21:25.447Z,10912
2018-07-09T06:21:51.030Z,15328
2018-07-09T06:22:16.543Z,14164
2018-07-09T06:22:42.004Z,17728
2018-07-09T06:23:07.536Z,12048
2018-07-09T06:23:33.057Z,12464
2018-07-09T06:23:58.529Z,18976
2018-07-09T06:24:24.026Z,11436
2018-07-09T06:24:49.529Z,14224
2018-07-09T06:25:15.038Z,11248
2018-07-09T06:25:40.531Z,10820
2018-07-09T06:26:06.026Z,9144
2018-07-09T06:26:31.568Z,9348
2018-07-09T06:26:57.063Z,8364
2018-07-09T06:27:22.613Z,8128
2018-07-09T06:27:48.153Z,8076
2018-07-09T06:28:13.679Z,8432
2018-07-09T06:28:39.187Z,8544
2018-07-09T06:29:04.663Z,7860
2018-07-09T06:29:30.141Z,7720
2018-07-09T06:29:55.602Z,7588
2018-07-09T06:30:21.099Z,7528
2018-07-09T06:30:46.627Z,7556
2018-07-09T06:31:12.139Z,7504
2018-07-09T06:31:37.722Z,7528
2018-07-09T06:32:03.232Z,7568
2018-07-09T06:32:28.721Z,7568
2018-07-09T06:32:54.215Z,7584
2018-07-09T06:33:19.710Z,7604
2018-07-09T06:33:45.201Z,7596
2018-07-09T06:34:10.700Z,7640
2018-07-09T06:34:36.232Z,7692
2018-07-09T06:35:01.767Z,7680
2018-07-09T06:35:27.244Z,7632
2018-07-09T06:35:52.722Z,7580
2018-07-09T06:36:18.230Z,7560
2018-07-09T06:36:43.711Z,7536
2018-07-09T06:37:57.521Z,7696
2018-07-09T06:38:23.022Z,7836
2018-07-09T06:38:48.536Z,8000
2018-07-09T06:39:14.015Z,8080
2018-07-09T06:39:39.511Z,8208
2018-07-09T06:40:04.990Z,8344
2018-07-09T06:40:30.485Z,8496
2018-07-09T06:40:55.985Z,8660
2018-07-09T06:41:21.496Z,8828
2018-07-09T06:41:47.005Z,8984
2018-07-09T06:42:12.489Z,9152
2018-07-09T06:43:36.530Z,9768
2018-07-09T06:44:02.033Z,9820
2018-07-09T06:44:27.532Z,10156
2018-07-09T06:44:53.046Z,10220
2018-07-09T06:45:18.540Z,10076
2018-07-09T06:45:44.062Z,10196
2018-07-09T06:46:09.571Z,10260
2018-07-09T06:46:35.121Z,10416
2018-07-09T06:47:00.585Z,10228
2018-07-09T06:47:26.042Z,10112
2018-07-09T06:48:34.750Z,10168
2018-07-09T06:49:00.249Z,10376
2018-07-09T06:49:25.731Z,10396
2018-07-09T06:49:51.220Z,10388
2018-07-09T06:50:16.699Z,10596
2018-07-09T06:50:42.212Z,10984
2018-07-09T06:51:07.704Z,11264
2018-07-09T06:51:33.177Z,11464
2018-07-09T06:51:58.718Z,11772
2018-07-09T06:52:24.203Z,12128
2018-07-09T06:52:49.700Z,11920
2018-07-09T06:53:15.168Z,11660
2018-07-09T06:53:40.678Z,11688
2018-07-09T06:54:06.208Z,11616
2018-07-09T06:54:31.722Z,12056
2018-07-09T06:54:57.225Z,12024
2018-07-09T06:55:22.732Z,12028
2018-07-09T06:55:48.236Z,12508
2018-07-09T06:56:13.692Z,12008
2018-07-09T06:56:39.218Z,11960
2018-07-09T06:57:04.719Z,11996
2018-07-09T06:57:30.229Z,12432
2018-07-09T06:57:55.737Z,12216
2018-07-09T06:58:21.208Z,12176
2018-07-09T06:58:46.682Z,11716
2018-07-09T06:59:12.200Z,11356
2018-07-09T06:59:37.677Z,12044
2018-07-09T07:00:03.186Z,11988
2018-07-09T07:00:28.685Z,12112
2018-07-09T07:00:54.171Z,12576
2018-07-09T07:01:19.685Z,12136
2018-07-09T07:01:45.170Z,12540
2018-07-09T07:02:10.699Z,12972
2018-07-09T07:02:36.159Z,12268
2018-07-09T07:03:01.777Z,12116
2018-07-09T07:03:27.256Z,12360
2018-07-09T07:03:52.765Z,12188
2018-07-09T07:04:18.275Z,12132
2018-07-09T07:04:43.770Z,11812
2018-07-09T07:05:09.251Z,11604
2018-07-09T07:05:34.765Z,11808
2018-07-09T07:06:00.264Z,14124
2018-07-09T07:06:25.764Z,11432
2018-07-09T07:06:51.285Z,11376
2018-07-09T07:07:16.774Z,11384
2018-07-09T07:07:42.305Z,11576
2018-07-09T07:08:07.817Z,11968
2018-07-09T07:08:33.312Z,12192
2018-07-09T07:08:59.050Z,12176
2018-07-09T07:09:24.304Z,12276
2018-07-09T07:09:49.820Z,12396
2018-07-09T07:10:15.346Z,12400
2018-07-09T07:10:40.831Z,11956
2018-07-09T07:11:06.337Z,11920
2018-07-09T07:11:31.826Z,11668
2018-07-09T07:11:57.315Z,11576
2018-07-09T07:12:22.796Z,11644
2018-07-09T07:12:48.307Z,11836
2018-07-09T07:13:13.785Z,11784
2018-07-09T07:13:39.289Z,11784
2018-07-09T07:14:04.798Z,11772
2018-07-09T07:14:30.299Z,11636
2018-07-09T07:14:55.818Z,11604
2018-07-09T07:15:21.325Z,11656
2018-07-09T07:15:46.816Z,11664
2018-07-09T07:16:12.318Z,11924
2018-07-09T07:16:37.789Z,12176
2018-07-09T07:17:03.299Z,12484
2018-07-09T07:17:28.796Z,12972
2018-07-09T07:17:54.308Z,13352
2018-07-09T07:18:19.817Z,13916
2018-07-09T07:18:45.299Z,14176
2018-07-09T07:19:10.780Z,15200
2018-07-09T07:19:36.279Z,16544
2018-07-09T07:20:01.795Z,18304
2018-07-09T07:20:27.300Z,17600
2018-07-09T07:20:52.741Z,15624
2018-07-09T07:21:18.221Z,14920
2018-07-09T07:21:43.713Z,14376
2018-07-09T07:22:09.222Z,13536
2018-07-09T07:22:34.735Z,13668
2018-07-09T07:23:00.223Z,14852
2018-07-09T07:23:25.750Z,14620
2018-07-09T07:24:29.371Z,15212
2018-07-09T07:24:54.877Z,17216
2018-07-09T07:25:20.384Z,17728
2018-07-09T07:25:45.884Z,18432
2018-07-09T07:26:11.384Z,18112
2018-07-09T07:26:36.923Z,18208
2018-07-09T07:27:02.350Z,14704
2018-07-09T07:27:27.861Z,14252
2018-07-09T07:27:53.362Z,13980
2018-07-09T07:28:18.880Z,13128
2018-07-09T07:28:44.370Z,13288
2018-07-09T07:29:09.866Z,14084
2018-07-09T07:29:35.355Z,13936
2018-07-09T07:30:00.819Z,14612
2018-07-09T07:30:26.313Z,14876
2018-07-09T07:30:51.853Z,15452
2018-07-09T07:31:17.328Z,13644
2018-07-09T07:31:42.828Z,13160
2018-07-09T07:32:08.309Z,12476
2018-07-09T07:32:33.856Z,12044
2018-07-09T07:32:59.319Z,11540
2018-07-09T07:33:24.822Z,11168
2018-07-09T07:33:50.302Z,10880
2018-07-09T07:34:15.798Z,10644
2018-07-09T07:34:41.311Z,10752
2018-07-09T07:35:06.866Z,10716
2018-07-09T07:35:32.368Z,10596
2018-07-09T07:36:46.200Z,10452
2018-07-09T07:37:11.691Z,10512
2018-07-09T07:37:37.151Z,10640
2018-07-09T07:38:02.685Z,10768
2018-07-09T07:38:28.113Z,10864
2018-07-09T07:38:53.586Z,10828
2018-07-09T07:39:19.105Z,10936
2018-07-09T07:39:44.592Z,11044
2018-07-09T07:40:10.121Z,11400
2018-07-09T07:40:35.619Z,11428
2018-07-09T07:41:01.128Z,11712
2018-07-09T07:41:26.617Z,11552
2018-07-09T07:41:52.101Z,11676
2018-07-09T07:42:17.592Z,11816
2018-07-09T07:42:43.093Z,11652
2018-07-09T07:43:56.920Z,11332
2018-07-09T07:44:22.431Z,11148
2018-07-09T07:44:47.961Z,11144
2018-07-09T07:45:13.425Z,11068
2018-07-09T07:45:38.963Z,11128
2018-07-09T07:46:04.489Z,11120
2018-07-09T07:46:29.973Z,11352
2018-07-09T07:46:55.459Z,11860
2018-07-09T07:47:20.944Z,12584
2018-07-09T07:47:46.452Z,13388
2018-07-09T07:48:11.973Z,14084
2018-07-09T07:48:37.506Z,14560
2018-07-09T07:49:02.988Z,15148
2018-07-09T07:49:28.485Z,15756
2018-07-09T07:49:54.004Z,16120
2018-07-09T07:50:19.564Z,16896
2018-07-09T07:50:44.936Z,17120
2018-07-09T07:51:10.431Z,17408
2018-07-09T07:51:35.918Z,17632
2018-07-09T07:52:01.418Z,17472
2018-07-09T07:52:26.924Z,18016
2018-07-09T07:52:52.391Z,18912
2018-07-09T07:53:17.886Z,16832
2018-07-09T07:53:43.388Z,15944
2018-07-09T07:54:08.918Z,14912
2018-07-09T07:54:34.471Z,14184
2018-07-09T07:55:00.012Z,13448
2018-07-09T07:55:25.502Z,13072
2018-07-09T07:55:51.123Z,13064
2018-07-09T07:56:16.550Z,13064
2018-07-09T07:56:42.062Z,13248
2018-07-09T07:57:07.556Z,13320
2018-07-09T07:57:33.079Z,13424
2018-07-09T07:57:58.580Z,13544
2018-07-09T07:58:24.064Z,13592
2018-07-09T07:58:49.564Z,13732
2018-07-09T07:59:15.044Z,13456
2018-07-09T07:59:40.561Z,13528
2018-07-09T08:00:06.092Z,13056
2018-07-09T08:00:31.579Z,12932
2018-07-09T08:00:57.062Z,12836
2018-07-09T08:01:22.562Z,12968
2018-07-09T08:01:48.060Z,12604
2018-07-09T08:02:13.555Z,12456
2018-07-09T08:02:39.038Z,12804
2018-07-09T08:03:04.546Z,13000
2018-07-09T08:03:30.079Z,12952
2018-07-09T08:03:55.569Z,12932
2018-07-09T08:04:21.086Z,12548
2018-07-09T08:04:46.563Z,13028
2018-07-09T08:05:12.087Z,12260
2018-07-09T08:05:37.604Z,11876
2018-07-09T08:06:03.055Z,11056
2018-07-09T08:06:28.577Z,10640
2018-07-09T08:06:54.073Z,10140
2018-07-09T08:07:19.615Z,9392
2018-07-09T08:07:45.061Z,9204
2018-07-09T08:08:10.598Z,8820
2018-07-09T08:08:36.128Z,8736
2018-07-09T08:09:01.647Z,8800
2018-07-09T08:09:27.202Z,8672
2018-07-09T08:09:52.658Z,8508
2018-07-09T08:10:18.137Z,7772
2018-07-09T08:10:43.623Z,7400
2018-07-09T08:11:11.510Z,7244
2018-07-09T08:11:48.552Z,7204
2018-07-09T08:13:13.737Z,8664
2018-07-09T08:13:29.004Z,8572
2018-07-09T08:13:44.764Z,8576
2018-07-09T08:14:10.183Z,8340
2018-07-09T08:14:35.697Z,9496
2018-07-09T08:15:01.162Z,9900
2018-07-09T08:15:26.724Z,10072
2018-07-09T08:15:52.161Z,11284
2018-07-09T08:16:17.668Z,12844
2018-07-09T08:16:43.158Z,14028
2018-07-09T08:17:08.677Z,18656
2018-07-09T08:17:34.188Z,17792
2018-07-09T08:17:59.705Z,18912
2018-07-09T08:18:25.211Z,14716
2018-07-09T08:18:50.705Z,14176
2018-07-09T08:19:16.208Z,14940
2018-07-09T08:19:41.702Z,13432
2018-07-09T08:20:07.167Z,11064
2018-07-09T08:20:32.660Z,12708
2018-07-09T08:20:58.166Z,12312
2018-07-09T08:21:23.664Z,14864
2018-07-09T08:21:49.182Z,15088
2018-07-09T08:22:14.667Z,15112
2018-07-09T08:22:40.190Z,16524
2018-07-09T08:23:05.706Z,15668
2018-07-09T08:23:31.201Z,13520
2018-07-09T08:23:56.761Z,11996
2018-07-09T08:24:22.245Z,10876
2018-07-09T08:24:47.871Z,11192
2018-07-09T08:25:13.232Z,11448
2018-07-09T08:25:38.912Z,11476
2018-07-09T08:26:04.229Z,11796
2018-07-09T08:26:29.681Z,12904
2018-07-09T08:26:55.174Z,11032
2018-07-09T08:27:20.670Z,10592
2018-07-09T08:27:46.169Z,10728
2018-07-09T08:28:11.667Z,13668
2018-07-09T08:28:37.186Z,13400
2018-07-09T08:29:02.669Z,12620
2018-07-09T08:29:28.175Z,12688
2018-07-09T08:29:53.684Z,12480
2018-07-09T08:30:19.198Z,12868
2018-07-09T08:30:44.725Z,12960
2018-07-09T08:31:10.352Z,13400
2018-07-09T08:31:35.725Z,13680
2018-07-09T08:32:01.208Z,13600
2018-07-09T08:32:26.719Z,13360
2018-07-09T08:32:52.191Z,12016
2018-07-09T08:33:17.683Z,12072
2018-07-09T08:33:43.160Z,13164
2018-07-09T08:34:08.628Z,12972
2018-07-09T08:34:34.183Z,13052
2018-07-09T08:34:59.691Z,12976
2018-07-09T08:35:25.198Z,12900
2018-07-09T08:35:50.693Z,12732
2018-07-09T08:36:16.189Z,12896
2018-07-09T08:36:41.735Z,13276
2018-07-09T08:37:07.256Z,13228
2018-07-09T08:37:32.759Z,13216
2018-07-09T08:37:58.301Z,13168
2018-07-09T08:38:23.751Z,12908
2018-07-09T08:38:49.255Z,12812
2018-07-09T08:39:14.748Z,12444
2018-07-09T08:39:40.240Z,12144
2018-07-09T08:40:05.775Z,11924
2018-07-09T08:40:31.230Z,11312
2018-07-09T08:40:56.757Z,10468
2018-07-09T08:41:22.277Z,10244
2018-07-09T08:41:47.799Z,10332
2018-07-09T08:42:13.290Z,10064
2018-07-09T08:42:38.794Z,9900
2018-07-09T08:43:04.277Z,9528
2018-07-09T08:43:29.815Z,9284
2018-07-09T08:43:55.311Z,8220
2018-07-09T08:44:20.833Z,7772
2018-07-09T08:44:46.337Z,8572
2018-07-09T08:45:11.839Z,9124
2018-07-09T08:45:37.365Z,8656
2018-07-09T08:46:02.845Z,8196
2018-07-09T08:46:28.374Z,7692
2018-07-09T08:46:53.868Z,8124
2018-07-09T08:47:19.399Z,7944
2018-07-09T08:47:44.886Z,7604
2018-07-09T08:48:10.323Z,6576
2018-07-09T08:48:35.832Z,6756
2018-07-09T08:49:01.327Z,6336
2018-07-09T08:49:26.815Z,6528
2018-07-09T08:49:52.363Z,6192
2018-07-09T08:50:17.848Z,6168
2018-07-09T08:50:43.328Z,6248
2018-07-09T08:51:08.802Z,6200
2018-07-09T08:51:34.293Z,6528
2018-07-09T08:51:59.905Z,6644
2018-07-09T08:52:25.366Z,6920
2018-07-09T08:52:50.863Z,7096
2018-07-09T08:53:16.403Z,7224
2018-07-09T08:53:41.881Z,7288
2018-07-09T08:54:07.377Z,7468
2018-07-09T08:54:32.874Z,7676
2018-07-09T08:54:58.377Z,7800
2018-07-09T08:55:24.037Z,7780
2018-07-09T08:55:49.352Z,7712
2018-07-09T08:56:14.886Z,8008
2018-07-09T08:56:40.389Z,8140
2018-07-09T08:57:05.889Z,8288
2018-07-09T08:57:31.402Z,8448
2018-07-09T08:57:56.886Z,8256
2018-07-09T08:58:22.400Z,7852
2018-07-09T08:58:47.888Z,7836
2018-07-09T08:59:13.394Z,7756
2018-07-09T08:59:38.837Z,7772
2018-07-09T09:00:42.478Z,7404
2018-07-09T09:01:07.978Z,7332
2018-07-09T09:01:33.519Z,7500
2018-07-09T09:01:59.011Z,7624
2018-07-09T09:02:24.484Z,8464
2018-07-09T09:02:49.962Z,9424
2018-07-09T09:03:15.458Z,9636
2018-07-09T09:03:40.971Z,9992
2018-07-09T09:04:06.461Z,10640
2018-07-09T09:04:31.950Z,10656
2018-07-09T09:04:57.445Z,12076
2018-07-09T09:05:22.947Z,12472
2018-07-09T09:05:48.445Z,12416
2018-07-09T09:06:13.944Z,12428
2018-07-09T09:06:39.449Z,12696
2018-07-09T09:07:04.923Z,13088
2018-07-09T09:07:30.426Z,13412
2018-07-09T09:07:55.932Z,14252
2018-07-09T09:08:21.461Z,14044
2018-07-09T09:08:46.964Z,13644
2018-07-09T09:09:12.479Z,13664
2018-07-09T09:09:37.968Z,13948
2018-07-09T09:10:03.483Z,14096
2018-07-09T09:10:29.005Z,14264
2018-07-09T09:10:54.448Z,15436
2018-07-09T09:11:19.990Z,16216
2018-07-09T09:11:45.425Z,17024
2018-07-09T09:12:10.936Z,17888
2018-07-09T09:12:36.428Z,18560
2018-07-09T09:13:01.928Z,17696
2018-07-09T09:13:27.414Z,16896
2018-07-09T09:13:52.889Z,16512
2018-07-09T09:14:18.385Z,15952
2018-07-09T09:14:43.900Z,14908
2018-07-09T09:15:09.390Z,13488
2018-07-09T09:15:34.881Z,12488
2018-07-09T09:16:00.397Z,11800
2018-07-09T09:16:25.893Z,11088
2018-07-09T09:16:51.410Z,9876
2018-07-09T09:17:16.894Z,8708
2018-07-09T09:17:42.410Z,8244
2018-07-09T09:18:07.923Z,8428
2018-07-09T09:18:33.418Z,8924
2018-07-09T09:18:58.911Z,9492
2018-07-09T09:19:24.419Z,9940
2018-07-09T09:19:49.924Z,10524
2018-07-09T09:20:15.414Z,11092
2018-07-09T09:20:40.920Z,11732
2018-07-09T09:21:06.414Z,12164
2018-07-09T09:21:31.921Z,12440
2018-07-09T09:21:57.427Z,12716
2018-07-09T09:22:22.908Z,12856
2018-07-09T09:22:48.399Z,12696
2018-07-09T09:23:13.905Z,12344
2018-07-09T09:23:39.453Z,11848
2018-07-09T09:24:04.930Z,10964
2018-07-09T09:24:30.473Z,9924
2018-07-09T09:24:55.989Z,9232
2018-07-09T09:25:21.481Z,9024
2018-07-09T09:25:46.996Z,9260
2018-07-09T09:26:12.505Z,9700
2018-07-09T09:26:38.060Z,10352
2018-07-09T09:27:03.589Z,11020
2018-07-09T09:27:29.091Z,11812
2018-07-09T09:27:54.584Z,12468
2018-07-09T09:29:08.412Z,14300
2018-07-09T09:29:33.926Z,14348
2018-07-09T09:29:59.433Z,14328
2018-07-09T09:30:24.931Z,14280
2018-07-09T09:30:50.433Z,14212
2018-07-09T09:31:15.978Z,14804
2018-07-09T09:31:41.432Z,15724
2018-07-09T09:32:06.925Z,16316
2018-07-09T09:32:32.426Z,16400
2018-07-09T09:32:57.924Z,16252
2018-07-09T09:33:23.421Z,15712
2018-07-09T09:33:48.906Z,15160
2018-07-09T09:34:14.447Z,14916
2018-07-09T09:34:39.948Z,14688
2018-07-09T09:35:05.451Z,14252
2018-07-09T09:35:30.957Z,13792
2018-07-09T09:35:56.447Z,13780
2018-07-09T09:36:21.941Z,14052
2018-07-09T09:36:47.463Z,14316
2018-07-09T09:37:12.943Z,14732
2018-07-09T09:37:38.422Z,15144
2018-07-09T09:38:03.946Z,15480
2018-07-09T09:38:29.444Z,14936
2018-07-09T09:39:53.493Z,13156
2018-07-09T09:40:18.985Z,13204
2018-07-09T09:40:44.470Z,12844
2018-07-09T09:41:09.967Z,12188
2018-07-09T09:41:35.497Z,11500
2018-07-09T09:42:00.994Z,10528
2018-07-09T09:42:26.477Z,9772
2018-07-09T09:42:51.986Z,9456
2018-07-09T09:43:17.490Z,9400
2018-07-09T09:43:42.972Z,9944
2018-07-09T09:44:08.451Z,10848
2018-07-09T09:44:33.956Z,11844
2018-07-09T09:44:59.473Z,12708
2018-07-09T09:45:24.986Z,13144
2018-07-09T09:45:50.477Z,13000
2018-07-09T09:46:15.983Z,12524
2018-07-09T09:46:41.489Z,11980
2018-07-09T09:47:06.965Z,11652
2018-07-09T09:47:32.457Z,11612
2018-07-09T09:47:57.940Z,11956
2018-07-09T09:48:23.497Z,11840
2018-07-09T09:48:49.017Z,11788
2018-07-09T09:49:14.526Z,12028
2018-07-09T09:49:40.012Z,12420
2018-07-09T09:50:05.512Z,12576
2018-07-09T09:50:31.047Z,12228
2018-07-09T09:50:56.533Z,11768
2018-07-09T09:51:22.015Z,11160
2018-07-09T09:51:47.521Z,10768
2018-07-09T09:52:13.011Z,10656
2018-07-09T09:52:38.495Z,10520
2018-07-09T09:53:03.996Z,10520
2018-07-09T09:53:29.509Z,10156
2018-07-09T09:53:55.021Z,9452
2018-07-09T09:54:20.498Z,8924
2018-07-09T09:54:46.013Z,8620
2018-07-09T09:55:11.512Z,8760
2018-07-09T09:55:37.015Z,8824
2018-07-09T09:56:02.538Z,8696
2018-07-09T09:56:28.031Z,8456